createdAt,value
2018-09-19T00:00:02.110Z,35.15
2018-09-19T00:00:41.102Z,31.70
2018-09-19T00:01:19.832Z,28.95
2018-09-19T00:01:58.415Z,33.05
2018-09-19T00:02:37.649Z,29.27
2018-09-19T00:03:16.673Z,33.25
2018-09-19T00:03:55.406Z,33.53
2018-09-19T00:04:33.957Z,35.58
2018-09-19T00:05:12.486Z,29.60
2018-09-19T00:05:51.048Z,32.23
2018-09-19T00:06:29.761Z,31.12
2018-09-19T00:07:08.299Z,30.80
2018-09-19T00:07:47.402Z,29.87
2018-09-19T00:08:26.007Z,35.95
2018-09-19T00:09:05.145Z,29.63
2018-09-19T00:09:43.788Z,31.87
2018-09-19T00:10:22.878Z,34.00
2018-09-19T00:11:01.430Z,32.50
2018-09-19T00:11:40.512Z,35.55
2018-09-19T00:12:19.820Z,32.48
2018-09-19T00:12:58.381Z,29.40
2018-09-19T00:13:36.945Z,29.55
2018-09-19T00:14:15.487Z,33.20
2018-09-19T00:14:54.039Z,29.30
2018-09-19T00:15:32.511Z,33.18
2018-09-19T00:16:15.111Z,33.25
2018-09-19T00:16:53.228Z,31.27
2018-09-19T00:17:31.357Z,32.88
2018-09-19T00:18:09.531Z,29.00
2018-09-19T00:18:47.624Z,29.65
2018-09-19T00:19:26.692Z,32.75
2018-09-19T00:20:04.631Z,28.27
2018-09-19T00:20:43.269Z,31.43
2018-09-19T00:21:21.273Z,30.72
2018-09-19T00:21:59.166Z,33.02
2018-09-19T00:22:37.184Z,34.92
2018-09-19T00:23:15.064Z,30.23
2018-09-19T00:23:53.114Z,44.73
2018-09-19T00:24:31.665Z,31.48
2018-09-19T00:25:11.421Z,36.75
2018-09-19T00:25:49.334Z,31.93
2018-09-19T00:26:27.412Z,35.95
2018-09-19T00:27:05.481Z,35.08
2018-09-19T00:27:43.386Z,31.93
2018-09-19T00:28:21.511Z,34.13
2018-09-19T00:28:59.546Z,34.03
2018-09-19T00:29:38.646Z,36.10
2018-09-19T00:30:16.609Z,35.52
2018-09-19T00:30:54.567Z,33.48
2018-09-19T00:31:32.693Z,36.17
2018-09-19T00:32:10.725Z,31.87
2018-09-19T00:32:48.721Z,36.33
2018-09-19T00:33:26.636Z,31.07
2018-09-19T00:34:48.203Z,34.88
2018-09-19T00:35:26.141Z,34.15
2018-09-19T00:36:04.207Z,30.85
2018-09-19T00:36:42.231Z,34.27
2018-09-19T00:37:21.043Z,32.40
2018-09-19T00:37:59.474Z,39.10
2018-09-19T00:38:37.555Z,34.10
2018-09-19T00:39:15.684Z,36.48
2018-09-19T00:39:53.737Z,36.28
2018-09-19T00:40:31.700Z,33.95
2018-09-19T00:41:09.892Z,35.28
2018-09-19T00:41:47.961Z,36.50
2018-09-19T00:42:26.070Z,37.25
2018-09-19T00:43:04.096Z,36.48
2018-09-19T00:43:42.187Z,36.68
2018-09-19T00:44:20.253Z,37.93
2018-09-19T00:44:58.187Z,37.42
2018-09-19T00:45:36.291Z,39.35
2018-09-19T00:46:15.445Z,38.05
2018-09-19T00:46:54.254Z,35.95
2018-09-19T00:47:32.246Z,35.35
2018-09-19T00:48:10.393Z,40.17
2018-09-19T00:48:48.484Z,34.15
2018-09-19T00:49:26.611Z,38.08
2018-09-19T00:50:04.604Z,38.98
2018-09-19T00:50:42.862Z,37.88
2018-09-19T00:51:21.065Z,38.65
2018-09-19T00:51:59.111Z,36.83
2018-09-19T00:52:37.083Z,40.52
2018-09-19T00:53:15.019Z,39.85
2018-09-19T00:53:52.965Z,45.40
2018-09-19T00:54:31.096Z,39.78
2018-09-19T00:55:09.191Z,43.65
2018-09-19T00:55:47.163Z,40.83
2018-09-19T00:56:25.038Z,41.02
2018-09-19T00:57:03.112Z,39.20
2018-09-19T00:57:41.270Z,42.53
2018-09-19T00:58:19.193Z,41.70
2018-09-19T00:58:57.177Z,43.98
2018-09-19T00:59:35.922Z,46.28
2018-09-19T01:00:14.121Z,41.48
2018-09-19T01:00:52.035Z,40.60
2018-09-19T01:01:29.936Z,41.40
2018-09-19T01:02:08.046Z,43.10
2018-09-19T01:02:46.064Z,44.42
2018-09-19T01:03:24.117Z,48.58
2018-09-19T01:04:02.029Z,43.02
2018-09-19T01:04:40.753Z,43.23
2018-09-19T01:05:18.906Z,45.35
2018-09-19T01:05:57.064Z,45.70
2018-09-19T01:06:35.146Z,45.25
2018-09-19T01:07:13.095Z,52.95
2018-09-19T01:07:51.111Z,45.78
2018-09-19T01:08:29.362Z,43.65
2018-09-19T01:09:08.226Z,45.28
2018-09-19T01:09:46.193Z,50.15
2018-09-19T01:10:24.219Z,49.20
2018-09-19T01:11:02.174Z,48.98
2018-09-19T01:11:40.524Z,51.10
2018-09-19T01:12:18.535Z,49.10
2018-09-19T01:12:56.677Z,45.43
2018-09-19T01:13:34.600Z,53.20
2018-09-19T01:14:12.629Z,53.92
2018-09-19T01:14:50.781Z,48.17
2018-09-19T01:15:29.943Z,46.90
2018-09-19T01:16:07.981Z,48.30
2018-09-19T01:16:46.197Z,52.23
2018-09-19T01:17:24.203Z,56.70
2018-09-19T01:18:03.079Z,50.55
2018-09-19T01:18:41.953Z,49.70
2018-09-19T01:19:19.929Z,49.55
2018-09-19T01:19:58.014Z,49.90
2018-09-19T01:20:36.197Z,48.70
2018-09-19T01:21:14.594Z,51.40
2018-09-19T01:21:53.600Z,56.98
2018-09-19T01:22:31.673Z,49.48
2018-09-19T01:23:09.668Z,52.15
2018-09-19T01:23:47.590Z,48.87
2018-09-19T01:24:25.602Z,46.37
2018-09-19T01:25:03.632Z,52.50
2018-09-19T01:25:42.205Z,51.77
2018-09-19T01:26:20.385Z,47.60
2018-09-19T01:26:58.326Z,48.80
2018-09-19T01:27:36.376Z,49.10
2018-09-19T01:28:14.384Z,50.80
2018-09-19T01:28:52.273Z,49.30
2018-09-19T01:29:30.232Z,51.88
2018-09-19T01:30:09.325Z,52.30
2018-09-19T01:30:47.349Z,52.50
2018-09-19T01:31:26.296Z,50.98
2018-09-19T01:32:04.325Z,50.23
2018-09-19T01:32:42.357Z,54.07
2018-09-19T01:33:20.917Z,51.28
2018-09-19T01:33:59.081Z,51.70
2018-09-19T01:34:36.990Z,50.20
2018-09-19T01:35:14.905Z,51.02
2018-09-19T01:35:53.051Z,48.05
2018-09-19T01:36:31.028Z,50.83
2018-09-19T01:37:09.138Z,55.20
2018-09-19T01:37:47.144Z,52.10
2018-09-19T01:38:26.267Z,51.50
2018-09-19T01:39:05.433Z,56.13
2018-09-19T01:39:43.521Z,57.00
2018-09-19T01:40:22.379Z,59.35
2018-09-19T01:41:00.423Z,58.55
2018-09-19T01:41:38.512Z,54.00
2018-09-19T01:42:16.469Z,59.75
2018-09-19T01:42:54.374Z,60.05
2018-09-19T01:43:32.252Z,55.12
2018-09-19T01:44:10.309Z,63.05
2018-09-19T01:44:48.280Z,59.98
2018-09-19T01:45:26.252Z,57.83
2018-09-19T01:46:04.257Z,56.98
2018-09-19T01:46:42.182Z,53.73
2018-09-19T01:47:20.085Z,53.90
2018-09-19T01:47:58.990Z,61.68
2018-09-19T01:48:37.205Z,60.80
2018-09-19T01:49:16.408Z,54.38
2018-09-19T01:49:54.475Z,54.00
2018-09-19T01:50:32.502Z,51.90
2018-09-19T01:51:10.596Z,49.70
2018-09-19T01:51:49.429Z,56.83
2018-09-19T01:52:27.469Z,60.17
2018-09-19T01:53:05.451Z,55.45
2018-09-19T01:53:43.451Z,57.85
2018-09-19T01:54:21.418Z,56.68
2018-09-19T01:55:00.286Z,48.85
2018-09-19T01:55:38.210Z,49.88
2018-09-19T01:56:16.843Z,54.77
2018-09-19T01:56:54.939Z,45.98
2018-09-19T01:57:32.864Z,51.05
2018-09-19T01:58:10.857Z,49.67
2018-09-19T01:58:48.813Z,47.00
2018-09-19T01:59:26.864Z,42.75
2018-09-19T02:00:04.824Z,48.15
2018-09-19T02:00:42.862Z,44.40
2018-09-19T02:01:20.923Z,42.53
2018-09-19T02:01:58.934Z,43.87
2018-09-19T02:02:37.033Z,43.33
2018-09-19T02:03:15.155Z,45.33
2018-09-19T02:03:53.292Z,42.13
2018-09-19T02:04:31.599Z,48.20
2018-09-19T02:05:10.930Z,45.30
2018-09-19T02:05:50.217Z,47.10
2018-09-19T02:06:28.932Z,41.20
2018-09-19T02:07:07.179Z,44.93
2018-09-19T02:07:45.311Z,40.10
2018-09-19T02:08:23.514Z,42.33
2018-09-19T02:09:02.020Z,43.52
2018-09-19T02:09:40.062Z,37.65
2018-09-19T02:10:18.078Z,39.40
2018-09-19T02:10:56.150Z,41.90
2018-09-19T02:11:34.221Z,38.80
2018-09-19T02:12:12.194Z,43.78
2018-09-19T02:12:51.221Z,40.73
2018-09-19T02:13:29.171Z,42.13
2018-09-19T02:14:07.105Z,41.45
2018-09-19T02:14:45.225Z,42.40
2018-09-19T02:15:23.295Z,40.23
2018-09-19T02:16:01.285Z,39.33
2018-09-19T02:16:39.633Z,34.70
2018-09-19T02:17:17.602Z,37.80
2018-09-19T02:17:55.784Z,41.63
2018-09-19T02:18:33.817Z,35.55
2018-09-19T02:20:00.278Z,35.43
2018-09-19T02:20:39.112Z,35.47
2018-09-19T02:21:17.284Z,34.53
2018-09-19T02:21:55.377Z,34.43
2018-09-19T02:22:33.395Z,37.30
2018-09-19T02:23:11.533Z,34.23
2018-09-19T02:23:49.510Z,35.95
2018-09-19T02:24:27.576Z,35.75
2018-09-19T02:25:05.631Z,36.68
2018-09-19T02:25:43.506Z,37.50
2018-09-19T02:26:21.571Z,37.10
2018-09-19T02:27:00.883Z,37.85
2018-09-19T02:27:38.920Z,41.33
2018-09-19T02:28:17.117Z,37.95
2018-09-19T02:28:55.089Z,37.40
2018-09-19T02:29:33.242Z,37.45
2018-09-19T02:30:11.357Z,39.60
2018-09-19T02:30:50.236Z,37.30
2018-09-19T02:31:28.283Z,43.42
2018-09-19T02:32:06.293Z,41.73
2018-09-19T02:32:44.212Z,38.50
2018-09-19T02:33:22.220Z,36.53
2018-09-19T02:34:00.209Z,36.05
2018-09-19T02:34:38.198Z,35.60
2018-09-19T02:35:16.295Z,35.03
2018-09-19T02:35:54.181Z,33.53
2018-09-19T02:36:32.282Z,39.03
2018-09-19T02:37:10.121Z,38.25
2018-09-19T02:37:48.181Z,36.00
2018-09-19T02:38:26.238Z,33.65
2018-09-19T02:39:04.905Z,36.58
2018-09-19T02:39:43.054Z,35.80
2018-09-19T02:40:21.291Z,34.55
2018-09-19T02:40:59.246Z,34.60
2018-09-19T02:41:37.269Z,32.67
2018-09-19T02:42:15.369Z,32.95
2018-09-19T02:42:53.481Z,36.98
2018-09-19T02:43:32.131Z,32.35
2018-09-19T02:44:10.257Z,34.98
2018-09-19T02:44:48.270Z,34.58
2018-09-19T02:45:26.224Z,35.78
2018-09-19T02:46:04.243Z,32.00
2018-09-19T02:46:42.283Z,33.37
2018-09-19T02:47:21.527Z,32.80
2018-09-19T02:47:59.506Z,33.67
2018-09-19T02:48:37.589Z,31.30
2018-09-19T02:49:15.529Z,37.03
2018-09-19T02:49:54.327Z,34.30
2018-09-19T02:50:32.174Z,34.33
2018-09-19T02:51:10.033Z,32.88
2018-09-19T02:51:48.077Z,33.13
2018-09-19T02:52:26.163Z,32.60
2018-09-19T02:53:05.281Z,32.40
2018-09-19T02:53:43.220Z,41.95
2018-09-19T02:54:21.167Z,32.00
2018-09-19T02:55:00.207Z,33.98
2018-09-19T02:55:38.329Z,30.68
2018-09-19T02:56:16.826Z,35.48
2018-09-19T02:56:54.870Z,32.73
2018-09-19T02:57:32.882Z,33.73
2018-09-19T02:58:10.819Z,39.08
2018-09-19T02:58:49.000Z,33.63
2018-09-19T02:59:26.929Z,33.80
2018-09-19T03:00:04.923Z,30.60
2018-09-19T03:00:42.905Z,32.63
2018-09-19T03:01:20.987Z,34.23
2018-09-19T03:01:59.070Z,35.17
2018-09-19T03:02:37.058Z,29.90
2018-09-19T03:03:15.032Z,35.63
2018-09-19T03:03:53.071Z,29.95
2018-09-19T03:04:31.130Z,33.88
2018-09-19T03:05:09.104Z,30.52
2018-09-19T03:05:47.221Z,43.00
2018-09-19T03:06:25.157Z,29.37
2018-09-19T03:07:03.207Z,32.63
2018-09-19T03:07:41.200Z,37.05
2018-09-19T03:08:19.195Z,32.03
2018-09-19T03:08:57.247Z,32.83
2018-09-19T03:09:35.247Z,31.80
2018-09-19T03:10:13.661Z,31.90
2018-09-19T03:10:51.824Z,29.82
2018-09-19T03:11:29.752Z,30.12
2018-09-19T03:12:07.693Z,30.90
2018-09-19T03:12:45.726Z,31.77
2018-09-19T03:13:23.654Z,31.42
2018-09-19T03:14:02.290Z,29.77
2018-09-19T03:14:40.157Z,30.80
2018-09-19T03:15:18.146Z,29.92
2018-09-19T03:15:56.865Z,29.80
2018-09-19T03:16:35.648Z,31.90
2018-09-19T03:17:13.678Z,30.02
2018-09-19T03:17:51.815Z,29.72
2018-09-19T03:18:30.028Z,29.72
2018-09-19T03:19:08.053Z,32.75
2018-09-19T03:19:46.157Z,28.77
2018-09-19T03:20:24.248Z,35.90
2018-09-19T03:21:02.296Z,26.85
2018-09-19T03:21:40.233Z,30.08
2018-09-19T03:22:18.300Z,32.17
2018-09-19T03:22:56.440Z,27.77
2018-09-19T03:23:34.442Z,28.32
2018-09-19T03:24:12.418Z,28.80
2018-09-19T03:24:50.429Z,29.10
2018-09-19T03:25:28.469Z,28.65
2018-09-19T03:26:06.522Z,27.65
2018-09-19T03:26:44.557Z,28.07
2018-09-19T03:27:23.417Z,28.98
2018-09-19T03:28:01.837Z,28.52
2018-09-19T03:28:39.857Z,31.73
2018-09-19T03:29:17.800Z,28.07
2018-09-19T03:29:56.675Z,27.95
2018-09-19T03:30:34.672Z,28.17
2018-09-19T03:31:12.724Z,27.85
2018-09-19T03:31:52.828Z,26.70
2018-09-19T03:32:30.787Z,28.65
2018-09-19T03:33:08.783Z,26.85
2018-09-19T03:33:46.683Z,27.30
2018-09-19T03:34:24.704Z,28.67
2018-09-19T03:35:02.714Z,28.00
2018-09-19T03:35:43.026Z,27.62
2018-09-19T03:36:21.136Z,30.82
2018-09-19T03:36:59.073Z,33.18
2018-09-19T03:37:37.131Z,26.75
2018-09-19T03:38:15.177Z,31.02
2018-09-19T03:38:53.111Z,28.90
2018-09-19T03:39:31.209Z,31.50
2018-09-19T03:40:09.354Z,28.45
2018-09-19T03:40:47.359Z,28.65
2018-09-19T03:41:25.388Z,29.57
2018-09-19T03:42:03.404Z,28.75
2018-09-19T03:42:41.431Z,28.10
2018-09-19T03:43:19.504Z,28.20
2018-09-19T03:43:57.483Z,29.95
2018-09-19T03:44:35.405Z,28.07
2018-09-19T03:45:13.597Z,29.02
2018-09-19T03:45:51.536Z,28.90
2018-09-19T03:46:29.499Z,29.67
2018-09-19T03:47:07.491Z,32.00
2018-09-19T03:47:47.202Z,27.30
2018-09-19T03:48:25.266Z,29.30
2018-09-19T03:49:03.363Z,28.15
2018-09-19T03:49:41.477Z,29.67
2018-09-19T03:50:19.890Z,29.80
2018-09-19T03:50:57.849Z,27.93
2018-09-19T03:51:35.903Z,28.17
2018-09-19T03:52:13.869Z,28.20
2018-09-19T03:52:51.894Z,29.65
2018-09-19T03:53:29.946Z,29.52
2018-09-19T03:54:08.001Z,35.25
2018-09-19T03:54:46.026Z,32.25
2018-09-19T03:55:24.114Z,29.23
2018-09-19T03:56:02.192Z,29.02
2018-09-19T03:56:40.119Z,29.37
2018-09-19T03:57:18.111Z,31.35
2018-09-19T03:57:57.004Z,27.80
2018-09-19T03:58:35.071Z,28.92
2018-09-19T03:59:13.124Z,34.18
2018-09-19T03:59:51.106Z,29.05
2018-09-19T04:00:29.110Z,30.30
2018-09-19T04:01:07.172Z,30.62
2018-09-19T04:01:45.351Z,31.02
2018-09-19T04:02:23.360Z,28.30
2018-09-19T04:03:01.258Z,34.90
2018-09-19T04:03:39.239Z,32.53
2018-09-19T04:04:17.330Z,30.52
2018-09-19T04:04:55.338Z,31.55
2018-09-19T04:05:33.255Z,30.45
2018-09-19T04:07:05.150Z,33.00
2018-09-19T04:08:40.401Z,30.83
2018-09-19T04:09:18.905Z,29.23
2018-09-19T04:09:56.999Z,35.28
2018-09-19T04:10:36.279Z,29.50
2018-09-19T04:11:14.396Z,33.33
2018-09-19T04:11:52.468Z,33.85
2018-09-19T04:12:30.435Z,31.00
2018-09-19T04:13:08.321Z,32.08
2018-09-19T04:13:46.366Z,32.63
2018-09-19T04:14:24.380Z,30.10
2018-09-19T04:15:02.513Z,33.78
2018-09-19T04:15:40.525Z,30.02
2018-09-19T04:16:18.525Z,29.55
2018-09-19T04:16:56.666Z,31.45
2018-09-19T04:17:34.546Z,37.08
2018-09-19T04:18:12.584Z,29.63
2018-09-19T04:18:50.504Z,30.68
2018-09-19T04:19:28.453Z,31.75
2018-09-19T04:20:10.354Z,30.70
2018-09-19T04:20:48.284Z,31.42
2018-09-19T04:21:26.300Z,30.75
2018-09-19T04:22:04.370Z,30.15
2018-09-19T04:22:42.477Z,31.77
2018-09-19T04:23:21.443Z,30.27
2018-09-19T04:23:59.536Z,31.20
2018-09-19T04:24:37.621Z,36.00
2018-09-19T04:25:15.719Z,32.78
2018-09-19T04:25:53.924Z,29.23
2018-09-19T04:26:31.872Z,33.53
2018-09-19T04:27:09.913Z,34.40
2018-09-19T04:27:47.874Z,33.58
2018-09-19T04:28:25.937Z,36.25
2018-09-19T04:30:00.058Z,37.17
2018-09-19T04:30:38.030Z,31.40
2018-09-19T04:31:15.916Z,37.15
2018-09-19T04:31:53.878Z,32.45
2018-09-19T04:32:32.818Z,32.27
2018-09-19T04:33:10.925Z,36.90
2018-09-19T04:33:48.788Z,32.75
2018-09-19T04:34:26.802Z,33.80
2018-09-19T04:35:04.750Z,31.95
2018-09-19T04:35:42.962Z,32.38
2018-09-19T04:36:20.999Z,32.78
2018-09-19T04:36:59.105Z,30.40
2018-09-19T04:37:37.117Z,33.60
2018-09-19T04:38:15.989Z,37.42
2018-09-19T04:38:53.981Z,31.48
2018-09-19T04:39:31.970Z,33.98
2018-09-19T04:40:10.040Z,37.00
2018-09-19T04:40:48.094Z,34.27
2018-09-19T04:41:26.045Z,31.93
2018-09-19T04:42:04.099Z,37.88
2018-09-19T04:42:42.190Z,34.07
2018-09-19T04:43:20.246Z,32.65
2018-09-19T04:43:58.276Z,33.65
2018-09-19T04:44:36.330Z,31.20
2018-09-19T04:45:14.419Z,33.65
2018-09-19T04:45:52.549Z,31.27
2018-09-19T04:46:30.660Z,32.40
2018-09-19T04:47:08.843Z,32.43
2018-09-19T04:47:46.847Z,33.92
2018-09-19T04:48:24.938Z,32.67
2018-09-19T04:49:02.948Z,34.18
2018-09-19T04:49:40.972Z,35.25
2018-09-19T04:50:18.909Z,36.20
2018-09-19T04:50:56.832Z,32.60
2018-09-19T04:51:35.032Z,35.23
2018-09-19T04:52:13.194Z,33.50
2018-09-19T04:52:51.166Z,33.23
2018-09-19T04:53:29.300Z,33.97
2018-09-19T04:54:07.278Z,31.80
2018-09-19T04:54:45.308Z,31.90
2018-09-19T04:55:23.350Z,32.43
2018-09-19T04:56:01.549Z,33.17
2018-09-19T04:56:40.077Z,35.52
2018-09-19T04:57:18.043Z,31.30
2018-09-19T04:57:56.055Z,31.93
2018-09-19T04:58:34.084Z,34.23
2018-09-19T04:59:12.040Z,33.20
2018-09-19T04:59:50.104Z,32.58
2018-09-19T05:00:28.015Z,35.35
2018-09-19T05:01:05.966Z,33.70
2018-09-19T05:01:43.997Z,35.40
2018-09-19T05:02:22.024Z,32.48
2018-09-19T05:03:00.124Z,33.70
2018-09-19T05:03:38.648Z,32.95
2018-09-19T05:04:16.748Z,33.20
2018-09-19T05:04:54.681Z,35.92
2018-09-19T05:05:32.761Z,34.10
2018-09-19T05:06:10.671Z,32.73
2018-09-19T05:06:48.644Z,34.37
2018-09-19T05:07:26.802Z,33.35
2018-09-19T05:08:04.968Z,32.20
2018-09-19T05:08:42.930Z,32.13
2018-09-19T05:09:21.757Z,32.27
2018-09-19T05:09:59.733Z,33.63
2018-09-19T05:10:37.815Z,34.63
2018-09-19T05:11:15.801Z,33.65
2018-09-19T05:11:53.903Z,35.30
2018-09-19T05:12:31.838Z,36.07
2018-09-19T05:13:10.077Z,33.37
2018-09-19T05:13:48.121Z,33.33
2018-09-19T05:14:27.044Z,33.77
2018-09-19T05:15:05.104Z,33.37
2018-09-19T05:15:43.760Z,33.80
2018-09-19T05:16:21.983Z,33.80
2018-09-19T05:17:00.109Z,38.17
2018-09-19T05:17:38.199Z,36.60
2018-09-19T05:18:16.816Z,34.60
2018-09-19T05:18:54.840Z,33.97
2018-09-19T05:19:32.825Z,35.13
2018-09-19T05:20:10.797Z,32.40
2018-09-19T05:20:48.797Z,34.07
2018-09-19T05:22:10.477Z,34.93
2018-09-19T05:22:48.508Z,33.30
2018-09-19T05:23:26.687Z,34.85
2018-09-19T05:24:04.658Z,32.53
2018-09-19T05:24:42.655Z,33.67
2018-09-19T05:25:20.710Z,32.63
2018-09-19T05:25:58.657Z,34.43
2018-09-19T05:26:36.581Z,34.50
2018-09-19T05:27:15.795Z,37.95
2018-09-19T05:27:53.821Z,32.00
2018-09-19T05:28:31.870Z,32.33
2018-09-19T05:29:09.979Z,30.50
2018-09-19T05:29:48.394Z,31.87
2018-09-19T05:30:26.823Z,31.80
2018-09-19T05:31:04.852Z,33.37
2018-09-19T05:31:42.899Z,28.90
2018-09-19T05:32:20.927Z,35.95
2018-09-19T05:32:58.993Z,37.33
2018-09-19T05:33:36.948Z,33.80
2018-09-19T05:34:14.889Z,32.57
2018-09-19T05:34:52.838Z,32.40
2018-09-19T05:35:30.895Z,35.07
2018-09-19T05:36:09.093Z,35.27
2018-09-19T05:36:48.160Z,35.60
2018-09-19T05:37:26.155Z,36.30
2018-09-19T05:38:04.205Z,36.00
2018-09-19T05:38:42.118Z,33.77
2018-09-19T05:39:20.358Z,33.83
2018-09-19T05:39:59.512Z,34.20
2018-09-19T05:40:37.354Z,37.40
2018-09-19T05:41:15.304Z,34.75
2018-09-19T05:41:53.388Z,33.03
2018-09-19T05:42:31.298Z,35.50
2018-09-19T05:43:09.262Z,34.73
2018-09-19T05:43:48.915Z,40.83
2018-09-19T05:44:26.876Z,34.80
2018-09-19T05:45:04.939Z,34.70
2018-09-19T05:45:42.856Z,33.10
2018-09-19T05:46:21.017Z,34.30
2018-09-19T05:46:59.152Z,32.17
2018-09-19T05:47:37.236Z,34.60
2018-09-19T05:48:15.305Z,36.10
2018-09-19T05:48:53.492Z,35.73
2018-09-19T05:49:31.457Z,39.40
2018-09-19T05:50:09.486Z,32.77
2018-09-19T05:50:47.466Z,34.73
2018-09-19T05:51:25.471Z,31.13
2018-09-19T05:52:04.493Z,32.27
2018-09-19T05:52:43.788Z,32.10
2018-09-19T05:53:21.723Z,31.93
2018-09-19T05:53:59.707Z,31.20
2018-09-19T05:54:37.789Z,33.43
2018-09-19T05:55:16.841Z,31.93
2018-09-19T05:55:54.941Z,33.17
2018-09-19T05:56:37.581Z,31.33
2018-09-19T05:57:15.489Z,33.50
2018-09-19T05:57:53.518Z,30.70
2018-09-19T05:58:32.576Z,31.10
2018-09-19T05:59:10.534Z,31.20
2018-09-19T05:59:48.687Z,31.03
2018-09-19T06:00:26.767Z,35.13
2018-09-19T06:01:05.358Z,33.67
2018-09-19T06:01:43.299Z,31.60
2018-09-19T06:02:21.261Z,32.87
2018-09-19T06:02:59.369Z,31.40
2018-09-19T06:03:38.240Z,29.60
2018-09-19T06:04:17.875Z,32.38
2018-09-19T06:04:59.988Z,33.80
2018-09-19T06:05:38.516Z,35.70
2018-09-19T06:06:16.510Z,34.93
2018-09-19T06:06:54.486Z,36.07
2018-09-19T06:07:32.568Z,32.57
2018-09-19T06:08:10.622Z,31.83
2018-09-19T06:08:48.766Z,31.40
2018-09-19T06:09:27.897Z,34.30
2018-09-19T06:10:06.468Z,32.43
2018-09-19T06:10:44.511Z,34.83
2018-09-19T06:11:22.682Z,36.17
2018-09-19T06:12:01.647Z,38.10
2018-09-19T06:12:39.735Z,39.13
2018-09-19T06:13:17.673Z,34.90
2018-09-19T06:14:00.725Z,34.20
2018-09-19T06:14:38.753Z,34.77
2018-09-19T06:15:17.515Z,35.83
2018-09-19T06:15:55.625Z,33.00
2018-09-19T06:16:33.656Z,35.33
2018-09-19T06:17:11.622Z,34.07
2018-09-19T06:17:49.555Z,33.57
2018-09-19T06:18:28.166Z,32.77
2018-09-19T06:19:06.314Z,34.10
2018-09-19T06:19:44.260Z,36.70
2018-09-19T06:20:23.174Z,32.40
2018-09-19T06:21:01.365Z,33.73
2018-09-19T06:21:39.267Z,32.73
2018-09-19T06:22:18.021Z,35.93
2018-09-19T06:22:56.322Z,35.27
2018-09-19T06:23:34.229Z,35.27
2018-09-19T06:24:12.409Z,34.27
2018-09-19T06:24:50.322Z,33.47
2018-09-19T06:25:28.363Z,33.20
2018-09-19T06:26:06.390Z,34.50
2018-09-19T06:26:44.458Z,34.30
2018-09-19T06:27:22.392Z,33.10
2018-09-19T06:28:00.474Z,34.33
2018-09-19T06:28:38.569Z,32.87
2018-09-19T06:29:16.578Z,33.83
2018-09-19T06:29:54.545Z,33.90
2018-09-19T06:30:32.667Z,31.83
2018-09-19T06:31:12.412Z,33.93
2018-09-19T06:31:51.125Z,31.73
2018-09-19T06:32:29.098Z,33.17
2018-09-19T06:33:07.252Z,37.07
2018-09-19T06:33:45.411Z,34.10
2018-09-19T06:34:23.551Z,34.67
2018-09-19T06:35:01.613Z,34.07
2018-09-19T06:35:40.395Z,35.07
2018-09-19T06:36:18.370Z,36.47
2018-09-19T06:36:56.423Z,32.75
2018-09-19T06:37:34.580Z,35.03
2018-09-19T06:38:12.615Z,32.20
2018-09-19T06:38:50.641Z,35.27
2018-09-19T06:39:28.533Z,36.57
2018-09-19T06:40:07.949Z,35.10
2018-09-19T06:40:46.068Z,35.50
2018-09-19T06:41:24.164Z,30.90
2018-09-19T06:42:02.186Z,31.70
2018-09-19T06:42:40.416Z,31.20
2018-09-19T06:43:18.436Z,32.00
2018-09-19T06:43:57.433Z,33.15
2018-09-19T06:44:35.910Z,31.17
2018-09-19T06:45:13.926Z,33.10
2018-09-19T06:45:51.988Z,31.60
2018-09-19T06:46:29.979Z,30.53
2018-09-19T06:47:08.003Z,33.10
2018-09-19T06:47:46.063Z,32.20
2018-09-19T06:48:24.146Z,33.67
2018-09-19T06:49:02.283Z,30.27
2018-09-19T06:49:40.338Z,30.87
2018-09-19T06:50:18.259Z,31.27
2018-09-19T06:50:56.204Z,32.10
2018-09-19T06:51:34.427Z,32.93
2018-09-19T06:52:12.571Z,34.65
2018-09-19T06:52:50.738Z,31.73
2018-09-19T06:53:28.987Z,32.03
2018-09-19T06:54:07.019Z,34.20
2018-09-19T06:54:44.971Z,30.13
2018-09-19T06:55:23.052Z,32.30
2018-09-19T06:56:01.021Z,30.10
2018-09-19T06:56:39.138Z,32.30
2018-09-19T06:57:18.017Z,33.83
2018-09-19T06:57:56.159Z,31.23
2018-09-19T06:58:34.221Z,30.23
2018-09-19T06:59:13.136Z,31.43
2018-09-19T06:59:51.355Z,33.23
2018-09-19T07:00:29.473Z,29.37
2018-09-19T07:01:08.558Z,31.83
2018-09-19T07:01:47.964Z,30.13
2018-09-19T07:02:26.838Z,28.20
2018-09-19T07:03:04.945Z,27.80
2018-09-19T07:03:42.806Z,30.33
2018-09-19T07:04:20.826Z,33.13
2018-09-19T07:04:58.892Z,31.57
2018-09-19T07:05:36.858Z,29.00
2018-09-19T07:06:14.961Z,28.10
2018-09-19T07:06:53.009Z,29.50
2018-09-19T07:07:31.068Z,33.00
2018-09-19T07:08:09.084Z,28.77
2018-09-19T07:08:47.196Z,27.60
2018-09-19T07:09:26.258Z,30.13
2018-09-19T07:10:04.553Z,30.77
2018-09-19T07:10:42.657Z,27.80
2018-09-19T07:11:20.765Z,29.83
2018-09-19T07:11:58.887Z,27.50
2018-09-19T07:12:36.846Z,28.30
2018-09-19T07:13:14.761Z,32.40
2018-09-19T07:13:52.959Z,28.03
2018-09-19T07:14:31.573Z,29.00
2018-09-19T07:15:09.861Z,29.23
2018-09-19T07:15:47.833Z,30.47
2018-09-19T07:16:25.742Z,29.80
2018-09-19T07:17:03.629Z,27.83
2018-09-19T07:17:41.563Z,31.57
2018-09-19T07:18:19.680Z,30.85
2018-09-19T07:18:58.032Z,29.93
2018-09-19T07:19:36.123Z,28.73
2018-09-19T07:20:15.062Z,27.53
2018-09-19T07:20:53.132Z,30.00
2018-09-19T07:21:32.031Z,30.73
2018-09-19T07:22:10.771Z,30.40
2018-09-19T07:22:48.848Z,30.57
2018-09-19T07:23:26.704Z,34.37
2018-09-19T07:24:04.648Z,28.40
2018-09-19T07:24:42.624Z,30.10
2018-09-19T07:25:20.724Z,27.80
2018-09-19T07:25:58.707Z,27.67
2018-09-19T07:26:36.774Z,26.37
2018-09-19T07:27:14.801Z,30.10
2018-09-19T07:27:52.653Z,30.10
2018-09-19T07:28:31.631Z,32.43
2018-09-19T07:29:09.778Z,29.80
2018-09-19T07:29:47.712Z,29.40
2018-09-19T07:30:25.753Z,28.27
2018-09-19T07:31:03.803Z,29.13
2018-09-19T07:31:41.993Z,30.67
2018-09-19T07:32:20.029Z,28.20
2018-09-19T07:32:58.130Z,29.03
2018-09-19T07:33:36.312Z,28.77
2018-09-19T07:34:14.342Z,28.63
2018-09-19T07:34:52.287Z,30.07
2018-09-19T07:35:30.512Z,28.67
2018-09-19T07:36:09.319Z,28.97
2018-09-19T07:36:49.161Z,27.93
2018-09-19T07:37:27.113Z,27.10
2018-09-19T07:38:05.147Z,30.53
2018-09-19T07:38:43.204Z,31.13
2018-09-19T07:39:21.299Z,27.77
2018-09-19T07:39:59.441Z,28.55
2018-09-19T07:40:37.940Z,26.83
2018-09-19T07:41:16.241Z,31.80
2018-09-19T07:41:54.280Z,27.60
2018-09-19T07:42:32.276Z,28.47
2018-09-19T07:43:11.449Z,27.20
2018-09-19T07:43:49.407Z,28.20
2018-09-19T07:44:27.574Z,28.90
2018-09-19T07:45:05.878Z,29.00
2018-09-19T07:45:44.008Z,28.40
2018-09-19T07:46:22.215Z,27.80
2018-09-19T07:47:00.278Z,29.52
2018-09-19T07:47:38.449Z,29.00
2018-09-19T07:48:16.888Z,28.30
2018-09-19T07:48:54.950Z,28.85
2018-09-19T07:49:32.961Z,28.47
2018-09-19T07:50:11.591Z,28.80
2018-09-19T07:50:50.763Z,29.00
2018-09-19T07:51:28.718Z,29.53
2018-09-19T07:52:06.749Z,31.13
2018-09-19T07:52:44.680Z,29.13
2018-09-19T07:53:22.826Z,28.93
2018-09-19T07:54:00.962Z,28.30
2018-09-19T07:54:39.027Z,28.40
2018-09-19T07:55:17.182Z,28.57
2018-09-19T07:55:55.970Z,30.67
2018-09-19T07:56:34.005Z,28.50
2018-09-19T07:57:12.004Z,31.80
2018-09-19T07:57:51.501Z,27.10
2018-09-19T07:58:29.653Z,28.50
2018-09-19T07:59:08.485Z,28.17
2018-09-19T07:59:46.625Z,29.67
2018-09-19T08:00:24.572Z,27.97
2018-09-19T08:01:02.715Z,30.80
2018-09-19T08:01:40.766Z,26.23
2018-09-19T08:02:19.352Z,27.67
2018-09-19T08:02:57.446Z,29.93
2018-09-19T08:03:35.490Z,30.23
2018-09-19T08:04:13.670Z,28.43
2018-09-19T08:04:51.602Z,28.27
2018-09-19T08:05:29.646Z,30.50
2018-09-19T08:06:07.597Z,31.73
2018-09-19T08:06:46.209Z,26.67
2018-09-19T08:07:25.120Z,31.20
2018-09-19T08:08:03.208Z,28.07
2018-09-19T08:08:41.337Z,26.70
2018-09-19T08:09:19.242Z,31.17
2018-09-19T08:09:58.406Z,27.20
2018-09-19T08:10:36.924Z,27.90
2018-09-19T08:11:16.500Z,33.40
2018-09-19T08:11:54.636Z,30.27
2018-09-19T08:12:32.520Z,29.73
2018-09-19T08:13:10.610Z,28.87
2018-09-19T08:13:48.582Z,31.73
2018-09-19T08:14:26.561Z,27.07
2018-09-19T08:15:05.280Z,28.73
2018-09-19T08:15:44.981Z,30.20
2018-09-19T08:16:22.868Z,27.40
2018-09-19T08:17:00.929Z,25.90